Time;durP1;ratioP1;P1;durP2;ratioP2;P2;SDS_P1;SDS_P2;PMS_P1;PMS_P2;Temp;Humidity;BMP_temperature;BMP_pressure;BME280_temperature;BME280_humidity;BME280_pressure;Samples;Min_cycle;Max_cycle;Signal;HPM_P1;HPM_P2
2022/12/05 00:02:44;;;;;;;16.35;4.40;;;11.00;99.90;;;;;;5032557;28;20056;-71
2022/12/05 00:05:49;;;;;;;11.85;4.88;;;11.00;99.90;;;;;;5032468;28;20044;-71
2022/12/05 00:09:13;;;;;;;12.27;5.10;;;10.90;99.90;;;;;;5032132;28;20502;-71
2022/12/05 00:12:18;;;;;;;11.38;4.65;;;10.80;99.90;;;;;;5043030;28;20400;-71
2022/12/05 00:24:54;;;;;;;20.20;6.25;;;10.90;99.90;;;;;;5032024;28;20044;-71
2022/12/05 00:27:59;;;;;;;13.57;6.00;;;10.90;99.90;;;;;;5032091;28;20041;-71
2022/12/05 00:31:09;;;;;;;16.38;4.97;;;10.90;99.90;;;;;;5031474;28;20048;-71
2022/12/05 00:34:14;;;;;;;15.13;5.53;;;10.90;99.90;;;;;;5030888;28;20072;-71
2022/12/05 00:37:18;;;;;;;11.90;5.20;;;10.90;99.90;;;;;;5032058;28;20044;-71
2022/12/05 00:40:22;;;;;;;9.45;5.20;;;10.90;99.90;;;;;;5030901;28;20503;-72
2022/12/05 00:43:26;;;;;;;17.33;6.13;;;10.90;99.90;;;;;;5031576;28;20045;-70
2022/12/05 00:46:32;;;;;;;15.35;6.60;;;10.90;99.90;;;;;;5031784;28;20048;-71
2022/12/05 00:49:36;;;;;;;13.38;5.70;;;10.90;99.90;;;;;;5031585;28;20052;-70
2022/12/05 00:52:41;;;;;;;12.20;4.93;;;10.90;99.90;;;;;;5031302;28;20040;-71
2022/12/05 00:55:45;;;;;;;8.40;3.65;;;11.00;99.90;;;;;;5030538;28;20048;-71
2022/12/05 00:58:51;;;;;;;6.68;3.13;;;11.00;99.90;;;;;;5031416;28;20048;-71
2022/12/05 01:01:55;;;;;;;9.77;3.65;;;11.10;99.90;;;;;;5030651;28;20392;-70
2022/12/05 01:04:59;;;;;;;6.07;2.83;;;11.10;99.90;;;;;;5031269;28;20483;-70
2022/12/05 01:08:03;;;;;;;9.65;3.15;;;11.10;99.90;;;;;;5042001;28;20400;-71
2022/12/05 01:11:09;;;;;;;11.65;3.58;;;11.10;99.90;;;;;;5031260;28;20041;-72
2022/12/05 01:14:15;;;;;;;6.53;2.38;;;11.20;99.90;;;;;;5030563;28;20040;-71
2022/12/05 01:17:20;;;;;;;10.57;2.80;;;11.20;99.90;;;;;;5031220;28;20048;-71
2022/12/05 01:20:26;;;;;;;5.18;3.00;;;11.20;99.90;;;;;;5031105;28;20048;-71
2022/12/05 01:23:29;;;;;;;8.00;3.00;;;11.30;99.90;;;;;;5030759;28;20043;-72
2022/12/05 01:26:33;;;;;;;6.50;3.10;;;11.30;99.90;;;;;;5030809;28;20044;-71
2022/12/05 01:29:37;;;;;;;10.82;2.72;;;11.30;99.90;;;;;;5030957;28;20044;-72
2022/12/05 01:32:42;;;;;;;5.03;2.60;;;11.30;99.90;;;;;;5030663;28;20064;-72
2022/12/05 01:35:46;;;;;;;6.57;2.25;;;11.30;99.90;;;;;;5031021;28;20053;-69
2022/12/05 01:38:51;;;;;;;5.07;2.20;;;11.30;99.90;;;;;;5030462;28;20045;-71
2022/12/05 01:41:55;;;;;;;4.07;1.88;;;11.40;99.90;;;;;;5030384;28;20423;-72
2022/12/05 01:45:42;;;;;;;9.30;2.25;;;11.40;99.90;;;;;;5030327;28;20525;-71
2022/12/05 01:48:46;;;;;;;7.03;3.45;;;11.50;99.90;;;;;;5030565;28;20044;-72
2022/12/05 01:51:54;;;;;;;7.50;2.30;;;11.50;99.90;;;;;;5030484;28;20399;-71
2022/12/05 01:55:04;;;;;;;9.68;2.38;;;11.50;99.90;;;;;;5030102;28;20052;-72
2022/12/05 01:58:09;;;;;;;5.28;2.10;;;11.50;99.90;;;;;;5030359;28;20052;-71
2022/12/05 02:01:16;;;;;;;11.88;3.25;;;11.60;99.90;;;;;;5029715;28;20052;-72
2022/12/05 02:04:20;;;;;;;5.78;2.20;;;11.60;99.90;;;;;;5030476;28;20044;-72
2022/12/05 02:07:26;;;;;;;8.80;2.08;;;11.60;99.90;;;;;;5030669;28;20068;-71
2022/12/05 02:10:37;;;;;;;12.77;2.70;;;11.60;99.90;;;;;;5030256;28;20071;-71
2022/12/05 02:13:45;;;;;;;7.75;2.63;;;11.70;99.90;;;;;;5029910;28;20044;-72
2022/12/05 02:17:04;;;;;;;9.88;2.88;;;11.70;99.90;;;;;;5030243;28;20060;-71
2022/12/05 02:20:14;;;;;;;10.57;2.88;;;11.80;99.90;;;;;;5029652;28;20048;-71
2022/12/05 02:23:24;;;;;;;6.03;2.00;;;11.80;99.90;;;;;;5028751;28;20048;-71
2022/12/05 02:27:02;;;;;;;11.02;2.92;;;11.80;99.90;;;;;;5030013;28;20048;-71
2022/12/05 02:30:11;;;;;;;9.68;2.50;;;11.90;99.90;;;;;;5030298;28;20045;-71
2022/12/05 02:33:16;;;;;;;5.05;2.28;;;11.90;99.90;;;;;;5040093;28;20046;-71
2022/12/05 02:36:44;;;;;;;10.57;2.53;;;12.00;99.90;;;;;;5029840;28;20052;-71
2022/12/05 02:39:55;;;;;;;9.23;2.00;;;12.00;99.90;;;;;;5030945;28;20053;-72
2022/12/05 02:43:13;;;;;;;7.55;1.80;;;12.00;99.90;;;;;;5029842;28;20045;-71
2022/12/05 02:46:21;;;;;;;8.20;2.28;;;12.10;99.90;;;;;;5029841;28;20072;-71
2022/12/05 02:49:30;;;;;;;10.93;2.05;;;12.10;99.90;;;;;;5030004;28;20400;-71
2022/12/05 02:52:34;;;;;;;9.38;1.73;;;12.00;99.90;;;;;;5030620;28;20060;-71
2022/12/05 02:55:40;;;;;;;8.45;2.47;;;12.00;99.90;;;;;;5032604;28;20045;-71
2022/12/05 02:58:54;;;;;;;5.28;1.80;;;12.00;99.90;;;;;;5033769;28;20045;-71
2022/12/05 03:01:58;;;;;;;7.13;1.98;;;12.00;99.90;;;;;;5033588;28;20044;-71
2022/12/05 03:05:32;;;;;;;8.23;1.90;;;12.00;99.90;;;;;;5033076;28;20044;-71
2022/12/05 03:08:54;;;;;;;7.20;2.17;;;12.00;99.90;;;;;;5033697;28;20044;-71
2022/12/05 03:12:10;;;;;;;7.70;2.00;;;11.90;99.90;;;;;;5033624;28;20041;-71
2022/12/05 03:15:21;;;;;;;4.38;2.03;;;11.90;99.90;;;;;;5033125;28;20338;-71
2022/12/05 03:18:32;;;;;;;8.00;1.70;;;11.80;99.90;;;;;;5033215;28;20045;-71
2022/12/05 03:22:01;;;;;;;5.50;2.45;;;11.80;99.90;;;;;;5033134;28;20050;-71
2022/12/05 03:25:07;;;;;;;8.45;1.88;;;11.80;99.90;;;;;;5032675;28;20040;-71
2022/12/05 03:28:28;;;;;;;5.72;2.30;;;11.70;99.90;;;;;;5032995;28;20044;-70
2022/12/05 03:31:48;;;;;;;5.13;2.08;;;11.70;99.90;;;;;;5032257;28;20523;-71
2022/12/05 03:35:04;;;;;;;7.65;2.38;;;11.80;99.90;;;;;;5032714;28;20044;-71
2022/12/05 03:38:46;;;;;;;6.25;2.00;;;11.80;99.90;;;;;;5033720;28;20052;-71
2022/12/05 03:42:16;;;;;;;11.65;2.30;;;11.80;99.90;;;;;;4990901;28;20045;-71
2022/12/05 03:45:30;;;;;;;7.88;2.20;;;11.70;99.90;;;;;;4996901;28;20048;-70
2022/12/05 03:48:50;;;;;;;5.88;1.60;;;11.70;99.90;;;;;;5032885;28;20048;-70
2022/12/05 03:52:06;;;;;;;8.50;2.17;;;11.70;99.90;;;;;;5032741;28;20052;-71
2022/12/05 03:55:13;;;;;;;6.85;1.80;;;11.80;99.90;;;;;;5032257;28;20048;-71
2022/12/05 03:58:27;;;;;;;8.98;2.15;;;11.90;99.90;;;;;;5032864;28;20037;-71
2022/12/05 04:01:33;;;;;;;5.50;1.92;;;12.10;99.90;;;;;;5032426;28;20416;-69
2022/12/05 04:05:00;;;;;;;3.45;1.50;;;12.10;99.90;;;;;;5031936;28;20052;-71
2022/12/05 04:08:09;;;;;;;9.10;2.13;;;12.10;99.90;;;;;;5032583;28;20045;-71
2022/12/05 04:11:21;;;;;;;7.40;2.08;;;12.00;99.90;;;;;;5031735;28;20053;-70
2022/12/05 04:14:40;;;;;;;11.07;1.70;;;12.00;99.90;;;;;;5031718;28;20500;-71
2022/12/05 04:17:47;;;;;;;6.57;1.83;;;11.70;99.90;;;;;;5032337;28;20040;-70
2022/12/05 04:27:58;;;;;;;6.43;2.60;;;11.20;99.90;;;;;;5032321;28;20067;-71
2022/12/05 04:31:02;;;;;;;3.90;2.05;;;11.20;99.90;;;;;;5032512;28;20049;-71
2022/12/05 04:34:11;;;;;;;8.65;2.03;;;11.20;99.90;;;;;;5031468;28;20048;-71
2022/12/05 04:37:19;;;;;;;7.38;2.45;;;11.20;99.90;;;;;;5031953;28;20053;-71
2022/12/05 04:40:34;;;;;;;8.85;2.40;;;11.30;99.90;;;;;;5031324;28;20044;-71
2022/12/05 04:43:41;;;;;;;4.72;2.17;;;11.30;99.90;;;;;;5031336;28;20049;-71
2022/12/05 04:46:48;;;;;;;6.10;2.05;;;11.30;99.90;;;;;;5031739;28;20053;-71
2022/12/05 04:49:54;;;;;;;5.35;2.40;;;11.30;99.90;;;;;;5031393;28;20036;-70
2022/12/05 04:53:00;;;;;;;13.85;2.28;;;11.20;99.90;;;;;;5040428;28;20591;-71
2022/12/05 04:56:10;;;;;;;9.45;2.28;;;11.30;99.90;;;;;;5030782;28;20041;-71
2022/12/05 04:59:14;;;;;;;11.85;2.83;;;11.40;99.90;;;;;;5031486;28;20388;-71
2022/12/05 05:02:26;;;;;;;9.23;2.22;;;11.40;99.90;;;;;;5031490;28;20052;-71
2022/12/05 05:05:32;;;;;;;11.23;2.92;;;11.40;99.90;;;;;;5030881;28;20044;-71
2022/12/05 05:08:36;;;;;;;13.05;3.20;;;11.40;99.90;;;;;;5031422;28;20385;-71
2022/12/05 05:11:40;;;;;;;15.13;2.60;;;11.30;99.90;;;;;;5030845;28;20041;-70
2022/12/05 05:14:44;;;;;;;12.43;2.70;;;11.30;99.90;;;;;;5029723;28;20061;-71
2022/12/05 05:17:48;;;;;;;12.57;2.80;;;11.30;99.90;;;;;;5031194;28;20040;-71
2022/12/05 05:20:52;;;;;;;8.43;2.92;;;11.40;99.90;;;;;;5031126;28;20052;-71
2022/12/05 05:23:57;;;;;;;19.13;4.07;;;11.40;99.90;;;;;;5030473;28;20056;-71
2022/12/05 05:27:01;;;;;;;17.02;2.97;;;11.40;99.90;;;;;;5030863;28;20057;-71
2022/12/05 05:30:08;;;;;;;10.70;3.38;;;11.40;99.90;;;;;;5030851;28;20400;-70
2022/12/05 05:33:12;;;;;;;9.07;3.35;;;11.40;99.90;;;;;;5029903;28;20040;-71
2022/12/05 05:36:17;;;;;;;9.82;3.38;;;11.30;99.90;;;;;;5030777;28;20048;-71
2022/12/05 05:39:21;;;;;;;8.57;3.53;;;11.20;99.90;;;;;;5030456;28;20056;-71
2022/12/05 05:42:26;;;;;;;14.65;4.15;;;11.10;99.90;;;;;;5030567;28;20036;-71
2022/12/05 05:45:30;;;;;;;12.05;5.30;;;11.00;99.90;;;;;;5030247;28;20061;-72
2022/12/05 05:48:34;;;;;;;8.60;4.47;;;11.00;99.90;;;;;;5030711;28;20048;-72
2022/12/05 05:51:39;;;;;;;13.05;6.47;;;10.90;99.90;;;;;;5030596;28;20044;-72
2022/12/05 05:54:43;;;;;;;10.90;4.93;;;10.90;99.90;;;;;;5029581;28;20040;-72
2022/12/05 05:57:47;;;;;;;12.75;5.53;;;10.90;99.90;;;;;;5030478;28;20052;-71
2022/12/05 06:00:51;;;;;;;11.40;5.88;;;10.90;99.90;;;;;;5030656;28;20053;-72
2022/12/05 06:03:56;;;;;;;12.55;6.30;;;10.90;99.90;;;;;;5030046;28;20048;-72
2022/12/05 06:07:01;;;;;;;10.40;5.93;;;10.90;99.90;;;;;;5030766;28;20072;-72
2022/12/05 06:10:05;;;;;;;10.23;5.97;;;11.00;99.90;;;;;;5030226;28;20057;-71
2022/12/05 06:13:09;;;;;;;14.23;6.22;;;11.00;99.90;;;;;;5031314;28;20041;-72
2022/12/05 06:16:15;;;;;;;12.18;7.22;;;11.00;99.90;;;;;;5031415;28;20048;-72
2022/12/05 06:19:20;;;;;;;14.35;6.43;;;11.00;99.90;;;;;;5031469;28;20048;-72
2022/12/05 06:22:24;;;;;;;16.10;6.57;;;10.90;99.90;;;;;;5031350;28;20053;-71
2022/12/05 06:25:28;;;;;;;13.95;7.32;;;10.90;99.90;;;;;;5030309;28;20404;-71
2022/12/05 06:28:33;;;;;;;12.38;8.02;;;10.90;99.90;;;;;;5032673;28;20060;-73
2022/12/05 06:31:37;;;;;;;12.65;6.75;;;10.80;99.90;;;;;;5045501;28;20045;-72
2022/12/05 06:34:40;;;;;;;10.85;7.05;;;10.90;99.90;;;;;;5033761;28;20045;-72
2022/12/05 06:37:44;;;;;;;12.25;7.80;;;10.90;99.90;;;;;;5034951;28;20586;-72
2022/12/05 06:40:49;;;;;;;12.93;8.90;;;10.80;99.90;;;;;;5034652;28;20048;-73
2022/12/05 06:43:56;;;;;;;17.10;8.85;;;10.70;99.90;;;;;;5034236;28;20044;-72
2022/12/05 06:47:00;;;;;;;21.45;9.25;;;10.80;99.90;;;;;;5034967;28;20056;-72
2022/12/05 06:50:05;;;;;;;19.13;10.48;;;10.70;99.90;;;;;;5033927;28;20056;-72
2022/12/05 06:53:08;;;;;;;273.83;28.60;;;10.70;99.90;;;;;;5033689;28;20044;-73
2022/12/05 06:56:16;;;;;;;375.55;36.50;;;10.70;99.90;;;;;;5044244;28;20610;-73
2022/12/05 06:59:20;;;;;;;15.27;9.75;;;10.70;99.90;;;;;;5034003;28;20052;-72
2022/12/05 07:02:26;;;;;;;16.17;8.90;;;10.70;99.90;;;;;;5033874;28;20045;-72
2022/12/05 07:05:30;;;;;;;14.93;6.95;;;10.70;99.90;;;;;;5033217;28;20045;-73
2022/12/05 07:08:34;;;;;;;17.33;6.28;;;10.80;99.90;;;;;;5033827;28;20049;-72
2022/12/05 07:11:38;;;;;;;12.23;4.53;;;10.80;99.90;;;;;;5032780;28;20048;-72
2022/12/05 07:14:42;;;;;;;9.52;3.90;;;10.90;99.90;;;;;;5032104;28;20056;-72
2022/12/05 07:17:46;;;;;;;9.57;3.13;;;11.10;99.90;;;;;;5032760;28;20395;-72
2022/12/05 07:20:59;;;;;;;18.27;8.75;;;11.20;99.90;;;;;;5031800;28;20048;-72
2022/12/05 07:24:04;;;;;;;14.10;5.88;;;11.30;99.90;;;;;;5033080;28;20060;-72
2022/12/05 07:27:08;;;;;;;11.48;3.55;;;11.30;99.90;;;;;;5033725;28;20049;-72
2022/12/05 07:30:13;;;;;;;11.75;6.38;;;11.40;99.90;;;;;;5013908;28;20535;-72
2022/12/05 07:33:17;;;;;;;9.18;3.63;;;11.30;99.90;;;;;;5021456;28;20047;-72
2022/12/05 07:36:22;;;;;;;9.15;3.75;;;11.10;99.90;;;;;;5032441;28;20053;-72
2022/12/05 07:39:26;;;;;;;12.63;6.00;;;11.10;99.90;;;;;;5032598;28;20048;-72
2022/12/05 07:42:32;;;;;;;10.23;4.28;;;11.10;99.90;;;;;;5054940;28;20045;-72
2022/12/05 07:45:36;;;;;;;6.30;4.20;;;11.10;99.90;;;;;;5033267;28;20048;-72
2022/12/05 07:48:41;;;;;;;14.65;3.88;;;11.10;99.90;;;;;;5033187;28;20041;-72
2022/12/05 07:51:44;;;;;;;9.18;3.00;;;11.10;99.90;;;;;;5033242;28;20056;-72
2022/12/05 07:54:48;;;;;;;11.77;4.95;;;11.10;99.90;;;;;;5031257;28;20056;-73
2022/12/05 07:57:53;;;;;;;6.32;3.08;;;11.10;99.90;;;;;;5032909;28;20048;-73
2022/12/05 08:01:04;;;;;;;8.90;3.20;;;11.10;99.90;;;;;;5033972;28;20050;-73
2022/12/05 08:04:10;;;;;;;5.15;2.05;;;11.10;99.90;;;;;;5022820;28;20052;-72
2022/12/05 08:07:14;;;;;;;6.07;2.08;;;11.20;99.90;;;;;;5032008;28;20499;-73
2022/12/05 08:10:20;;;;;;;7.78;2.40;;;11.20;99.90;;;;;;5030989;28;20048;-73
2022/12/05 08:13:23;;;;;;;8.35;2.25;;;11.20;99.90;;;;;;5024272;28;20048;-73
2022/12/05 08:16:29;;;;;;;8.07;2.35;;;11.20;99.90;;;;;;5028452;28;20036;-73
2022/12/05 08:19:33;;;;;;;11.43;2.85;;;11.30;99.90;;;;;;5032051;28;20480;-73
2022/12/05 08:22:37;;;;;;;6.68;2.40;;;11.30;99.90;;;;;;5028146;28;20044;-72
2022/12/05 08:25:41;;;;;;;4.40;1.70;;;11.20;99.90;;;;;;5031886;28;20044;-72
2022/12/05 08:28:49;;;;;;;8.27;1.80;;;11.30;99.90;;;;;;5032120;28;20586;-73
2022/12/05 08:31:53;;;;;;;5.65;1.92;;;11.30;99.90;;;;;;5030864;28;20040;-72
2022/12/05 08:34:57;;;;;;;9.25;1.95;;;11.30;99.90;;;;;;5020468;28;20044;-72
2022/12/05 08:38:02;;;;;;;5.93;1.63;;;11.40;99.90;;;;;;5028741;28;20048;-73
2022/12/05 08:41:12;;;;;;;9.80;1.90;;;11.40;99.90;;;;;;5031053;28;20060;-72
2022/12/05 08:44:18;;;;;;;6.75;1.80;;;11.40;99.90;;;;;;5027135;28;20052;-73
2022/12/05 08:47:22;;;;;;;6.88;2.28;;;11.40;99.90;;;;;;5029432;28;20072;-72
2022/12/05 08:50:26;;;;;;;8.68;2.40;;;11.50;99.90;;;;;;5025080;28;20048;-72
2022/12/05 08:53:31;;;;;;;11.60;4.80;;;11.60;99.90;;;;;;5019096;28;20049;-72
2022/12/05 08:56:35;;;;;;;8.05;3.58;;;11.70;99.90;;;;;;5028759;28;20048;-72
2022/12/05 08:59:39;;;;;;;71.63;8.93;;;11.60;99.90;;;;;;5029377;28;20503;-72
2022/12/05 09:02:43;;;;;;;29.38;9.85;;;11.50;99.90;;;;;;5030002;28;20045;-73
2022/12/05 09:05:48;;;;;;;172.65;17.48;;;11.50;99.90;;;;;;5030971;28;20045;-72
2022/12/05 09:08:54;;;;;;;32.95;11.20;;;11.50;99.90;;;;;;5029187;28;20040;-72
2022/12/05 09:11:59;;;;;;;22.77;11.15;;;11.60;99.90;;;;;;5027491;28;20519;-72
2022/12/05 09:15:05;;;;;;;124.72;14.65;;;11.70;99.90;;;;;;5029960;28;20068;-72
2022/12/05 09:18:11;;;;;;;22.33;10.25;;;11.60;99.90;;;;;;5040598;28;20045;-72
2022/12/05 09:21:20;;;;;;;41.22;13.38;;;11.60;99.90;;;;;;5029390;28;20091;-72
2022/12/05 09:24:24;;;;;;;14.88;11.13;;;11.60;99.90;;;;;;5028138;28;20044;-72
2022/12/05 09:27:29;;;;;;;22.25;14.23;;;11.50;99.90;;;;;;5027077;28;20044;-72
2022/12/05 09:30:34;;;;;;;18.40;13.30;;;11.60;99.90;;;;;;5028852;28;20109;-72
2022/12/05 09:33:38;;;;;;;16.70;10.90;;;11.60;99.90;;;;;;5017067;28;20125;-73
2022/12/05 09:36:43;;;;;;;39.33;11.73;;;11.60;99.90;;;;;;5024143;28;20044;-73
2022/12/05 09:39:48;;;;;;;13.10;9.38;;;11.60;99.90;;;;;;5025345;28;20049;-73
2022/12/05 09:43:02;;;;;;;21.85;15.43;;;11.70;99.90;;;;;;5030494;28;20041;-72
2022/12/05 09:46:25;;;;;;;20.52;9.02;;;11.90;99.90;;;;;;5027342;28;20044;-72
2022/12/05 09:49:31;;;;;;;13.20;9.82;;;12.00;99.90;;;;;;5010641;28;20045;-71
2022/12/05 09:52:40;;;;;;;13.20;8.35;;;12.00;99.90;;;;;;5029314;28;20039;-72
2022/12/05 09:55:51;;;;;;;22.08;15.07;;;11.90;99.90;;;;;;5026161;28;20056;-72
2022/12/05 09:59:01;;;;;;;66.25;12.15;;;11.80;99.90;;;;;;5021131;28;20044;-72
2022/12/05 10:02:22;;;;;;;19.87;10.70;;;11.50;99.90;;;;;;5014724;28;20040;-72
2022/12/05 10:05:51;;;;;;;466.85;147.18;;;11.40;99.90;;;;;;5026868;28;20448;-72
2022/12/05 10:18:47;;;;;;;49.58;15.43;;;11.20;99.90;;;;;;5027752;28;20052;-72
2022/12/05 10:21:59;;;;;;;19.67;11.93;;;11.30;99.90;;;;;;5025668;28;20113;-73
2022/12/05 10:25:06;;;;;;;31.80;12.93;;;11.30;99.90;;;;;;5028868;28;20045;-74
2022/12/05 10:28:35;;;;;;;64.18;14.85;;;11.30;99.90;;;;;;5027098;28;20555;-73
2022/12/05 10:31:41;;;;;;;20.42;10.48;;;11.30;99.90;;;;;;5025307;28;20043;-74
2022/12/05 10:34:49;;;;;;;19.45;10.38;;;11.30;99.90;;;;;;5027200;28;20044;-73
2022/12/05 10:37:58;;;;;;;21.60;11.15;;;11.30;99.90;;;;;;5017729;28;20384;-73
2022/12/05 10:41:07;;;;;;;19.63;11.33;;;11.30;99.90;;;;;;5029228;28;20040;-73
2022/12/05 10:53:53;;;;;;;10.70;4.75;;;12.20;99.90;;;;;;5026103;28;20495;-72
2022/12/05 10:56:58;;;;;;;13.45;5.20;;;12.30;99.90;;;;;;5032905;28;20036;-72
2022/12/05 11:00:14;;;;;;;9.43;4.53;;;12.30;99.90;;;;;;5034487;28;20526;-73
2022/12/05 11:03:22;;;;;;;14.43;5.22;;;12.30;99.90;;;;;;5045293;28;20486;-72
2022/12/05 11:06:29;;;;;;;15.05;6.47;;;12.40;99.90;;;;;;5027097;28;20498;-73
2022/12/05 11:09:36;;;;;;;13.05;6.97;;;12.40;99.90;;;;;;5029381;28;20049;-72
2022/12/05 11:12:41;;;;;;;14.57;4.80;;;12.40;99.90;;;;;;5028757;28;20044;-73
2022/12/05 11:15:46;;;;;;;10.07;5.20;;;12.10;99.90;;;;;;5032082;28;20053;-73
2022/12/05 11:18:51;;;;;;;11.30;5.15;;;12.20;99.90;;;;;;5032866;28;20044;-73
2022/12/05 11:21:56;;;;;;;8.85;3.97;;;12.40;99.90;;;;;;5034323;28;20503;-73
2022/12/05 11:25:20;;;;;;;9.82;3.20;;;12.80;99.90;;;;;;5032983;28;20049;-73
2022/12/05 11:28:32;;;;;;;11.32;2.70;;;13.20;99.90;;;;;;5053731;28;20060;-74
2022/12/05 11:31:36;;;;;;;6.50;2.90;;;14.70;99.90;;;;;;5033989;28;20048;-73
2022/12/05 11:35:11;;;;;;;7.22;2.40;;;16.60;99.90;;;;;;5024555;28;20048;-71
2022/12/05 11:38:17;;;;;;;8.45;2.53;;;18.50;99.90;;;;;;5034593;28;20044;-73
2022/12/05 11:41:37;;;;;;;9.88;3.00;;;17.70;99.90;;;;;;5042577;28;20508;-74
2022/12/05 11:44:54;;;;;;;11.00;2.42;;;18.70;99.90;;;;;;5030917;28;20044;-73
2022/12/05 11:48:36;;;;;;;6.93;2.00;;;21.10;99.90;;;;;;5031334;28;20040;-71
2022/12/05 11:51:56;;;;;;;5.03;1.80;;;21.60;99.90;;;;;;5031342;28;20499;-72
2022/12/05 11:55:18;;;;;;;5.68;1.75;;;21.00;99.90;;;;;;5022270;28;20528;-71
2022/12/05 11:58:44;;;;;;;5.53;1.65;;;23.70;99.90;;;;;;5032668;28;20041;-72
2022/12/05 12:02:01;;;;;;;5.18;1.55;;;25.40;99.90;;;;;;5033047;28;20056;-72
2022/12/05 12:05:30;;;;;;;6.93;1.70;;;22.70;99.90;;;;;;5037288;28;20064;-72
2022/12/05 12:09:11;;;;;;;5.18;1.77;;;21.80;99.90;;;;;;5024891;28;20052;-73
2022/12/05 12:12:55;;;;;;;7.85;1.38;;;23.50;99.90;;;;;;5007110;28;20045;-71
2022/12/05 12:16:27;;;;;;;7.43;1.75;;;25.20;99.90;;;;;;5038958;28;20049;-72
2022/12/05 12:19:34;;;;;;;5.50;1.55;;;22.20;99.90;;;;;;5028196;28;20048;-71
2022/12/05 12:23:05;;;;;;;6.70;1.90;;;20.60;99.90;;;;;;5026764;28;20049;-71
2022/12/05 12:26:18;;;;;;;6.32;1.90;;;19.10;99.90;;;;;;5032410;28;20369;-71
2022/12/05 12:29:24;;;;;;;3.28;1.38;;;20.90;99.90;;;;;;5012915;28;20057;-72
2022/12/05 12:32:57;;;;;;;9.30;1.88;;;22.40;99.90;;;;;;5029486;28;20500;-72
2022/12/05 12:36:13;;;;;;;8.93;2.30;;;23.30;99.90;;;;;;5030838;28;20526;-73
2022/12/05 12:39:41;;;;;;;10.70;2.60;;;23.80;99.90;;;;;;5031883;28;20052;-73
2022/12/05 12:43:03;;;;;;;7.18;2.10;;;22.00;99.90;;;;;;5034171;28;20045;-73
2022/12/05 12:46:43;;;;;;;6.63;1.90;;;20.40;99.90;;;;;;5031696;28;20052;-72
2022/12/05 12:50:07;;;;;;;12.60;2.85;;;18.70;99.90;;;;;;5050036;28;20499;-72
2022/12/05 12:53:40;;;;;;;12.40;2.63;;;17.30;99.90;;;;;;5029226;28;20044;-72
2022/12/05 12:57:10;;;;;;;10.10;2.33;;;16.50;99.90;;;;;;5026009;28;20049;-72
2022/12/05 13:00:22;;;;;;;7.95;2.33;;;16.10;99.90;;;;;;5036512;28;20051;-72
2022/12/05 13:03:46;;;;;;;11.32;2.88;;;15.70;99.90;;;;;;5029703;28;20048;-72
2022/12/05 13:07:02;;;;;;;9.02;2.25;;;15.50;99.90;;;;;;5038650;28;20052;-72
2022/12/05 13:10:26;;;;;;;10.65;2.53;;;15.10;99.90;;;;;;5032417;28;20364;-72
2022/12/05 13:13:37;;;;;;;9.27;2.55;;;14.90;99.90;;;;;;5030382;28;20522;-72
2022/12/05 13:16:49;;;;;;;12.60;2.80;;;14.90;99.90;;;;;;5029059;28;20068;-72
2022/12/05 13:19:55;;;;;;;14.60;2.83;;;15.10;99.90;;;;;;5028224;28;20785;-73
2022/12/05 13:23:03;;;;;;;17.83;4.25;;;15.20;99.90;;;;;;5028408;28;20215;-72
2022/12/05 13:26:10;;;;;;;10.70;2.30;;;15.00;99.90;;;;;;5034768;28;20163;-72
2022/12/05 13:29:21;;;;;;;16.33;3.15;;;14.80;99.90;;;;;;5041869;28;20495;-72
2022/12/05 13:32:33;;;;;;;10.57;2.72;;;14.60;99.90;;;;;;5031113;28;20400;-71
2022/12/05 13:42:36;;;;;;;11.82;2.85;;;14.30;99.90;;;;;;5024241;28;20045;-72
2022/12/05 13:45:53;;;;;;;11.38;2.50;;;14.50;99.90;;;;;;5037080;28;20052;-71
2022/12/05 13:49:17;;;;;;;13.85;3.63;;;14.70;99.90;;;;;;5036247;28;20056;-72
2022/12/05 13:52:25;;;;;;;10.18;2.78;;;15.70;99.90;;;;;;5029032;28;20040;-72
2022/12/05 13:55:36;;;;;;;9.32;3.00;;;16.30;99.90;;;;;;5019548;28;20048;-71
2022/12/05 13:58:56;;;;;;;6.95;2.20;;;17.10;99.90;;;;;;5033640;28;20052;-71
2022/12/05 14:02:00;;;;;;;14.15;2.50;;;18.20;99.90;;;;;;5027814;28;20040;-72
2022/12/05 14:05:26;;;;;;;13.77;3.75;;;18.90;99.90;;;;;;5037803;28;20047;-71
2022/12/05 14:08:38;;;;;;;7.30;2.28;;;19.30;99.90;;;;;;5030674;28;20067;-72
2022/12/05 14:12:11;;;;;;;12.00;2.70;;;19.30;99.90;;;;;;5042415;28;20044;-71
2022/12/05 14:15:29;;;;;;;10.23;2.30;;;19.50;99.90;;;;;;5030736;28;20769;-70
2022/12/05 14:18:51;;;;;;;9.55;3.30;;;18.00;99.90;;;;;;5034353;28;20384;-71
2022/12/05 14:22:46;;;;;;;5.43;1.85;;;18.20;99.90;;;;;;5031137;28;20086;-73
2022/12/05 14:25:53;;;;;;;9.65;2.15;;;18.50;99.90;;;;;;5005673;28;20037;-72
2022/12/05 14:29:02;;;;;;;8.48;2.42;;;17.70;99.90;;;;;;5027918;28;20087;-72
2022/12/05 14:32:27;;;;;;;6.85;1.88;;;16.70;99.90;;;;;;5025833;28;20407;-72
2022/12/05 14:35:41;;;;;;;6.97;2.22;;;16.40;99.90;;;;;;5029564;28;20048;-72
2022/12/05 14:38:45;;;;;;;10.32;2.15;;;16.40;99.90;;;;;;5033157;28;20075;-73
2022/12/05 14:41:59;;;;;;;8.55;2.15;;;15.80;99.90;;;;;;5038705;28;20044;-72
2022/12/05 14:45:39;;;;;;;9.90;2.72;;;15.60;99.90;;;;;;5023659;28;20640;-72
2022/12/05 14:48:46;;;;;;;5.45;2.10;;;15.50;99.90;;;;;;5015998;28;20060;-72
2022/12/05 14:51:56;;;;;;;8.85;2.20;;;15.80;99.90;;;;;;5028868;28;20052;-72
2022/12/05 14:55:05;;;;;;;6.65;2.50;;;16.40;99.90;;;;;;5029133;28;20052;-71
2022/12/05 14:58:20;;;;;;;11.38;3.40;;;17.00;99.90;;;;;;5031020;28;20040;-71
2022/12/05 15:01:25;;;;;;;14.98;3.25;;;16.10;99.90;;;;;;5028282;28;20417;-72
2022/12/05 15:04:43;;;;;;;9.52;2.40;;;15.60;99.90;;;;;;5031161;28;20052;-72
2022/12/05 15:07:48;;;;;;;13.38;2.92;;;15.10;99.90;;;;;;5030024;28;20052;-72
2022/12/05 15:10:53;;;;;;;8.32;2.58;;;14.70;99.90;;;;;;5035243;28;20052;-71
2022/12/05 15:14:26;;;;;;;7.57;2.10;;;14.50;99.90;;;;;;5050680;28;20426;-72
2022/12/05 15:17:39;;;;;;;8.98;2.60;;;14.20;99.90;;;;;;5036828;28;20421;-71
2022/12/05 15:21:07;;;;;;;5.38;2.05;;;14.00;99.90;;;;;;5030618;28;20499;-71
2022/12/05 15:24:16;;;;;;;6.53;2.17;;;13.80;99.90;;;;;;5031695;28;20052;-71
2022/12/05 15:27:22;;;;;;;10.40;3.15;;;13.60;99.90;;;;;;5029595;28;20040;-71
2022/12/05 15:30:27;;;;;;;8.40;1.85;;;13.50;99.90;;;;;;5029785;28;20392;-71
2022/12/05 15:33:33;;;;;;;7.07;2.17;;;13.50;99.90;;;;;;5032272;28;20044;-72
2022/12/05 15:36:43;;;;;;;15.40;2.28;;;13.40;99.90;;;;;;5036039;28;20059;-72
2022/12/05 15:39:57;;;;;;;12.55;2.00;;;13.40;99.90;;;;;;5027246;28;20048;-72
2022/12/05 15:43:26;;;;;;;11.38;2.63;;;13.30;99.90;;;;;;5029344;28;20036;-72
2022/12/05 15:46:30;;;;;;;8.23;2.20;;;13.30;99.90;;;;;;5033983;28;20048;-72
2022/12/05 15:49:34;;;;;;;7.95;2.83;;;13.30;99.90;;;;;;5037169;28;20052;-73
2022/12/05 15:52:44;;;;;;;14.07;2.83;;;13.20;99.90;;;;;;5038853;28;20707;-71
2022/12/05 15:56:14;;;;;;;14.98;3.70;;;13.00;99.90;;;;;;5039016;28;20415;-71
2022/12/05 15:59:33;;;;;;;12.93;2.80;;;13.00;99.90;;;;;;5037410;28;20033;-72
2022/12/05 16:02:43;;;;;;;6.97;2.53;;;13.10;99.90;;;;;;5027314;28;20056;-72
2022/12/05 16:05:56;;;;;;;8.23;2.17;;;13.00;99.90;;;;;;5029832;28;20053;-72
2022/12/05 16:09:05;;;;;;;7.03;2.17;;;13.00;99.90;;;;;;5033051;28;20491;-71
2022/12/05 16:12:35;;;;;;;12.70;3.70;;;13.00;99.90;;;;;;5043530;28;20048;-71
2022/12/05 16:15:44;;;;;;;6.45;2.40;;;13.00;99.90;;;;;;5030835;28;20771;-71
2022/12/05 16:18:53;;;;;;;10.15;3.78;;;13.10;99.90;;;;;;5031009;28;20053;-71
2022/12/05 16:22:12;;;;;;;12.68;2.40;;;13.00;99.90;;;;;;5034032;28;20040;-71
2022/12/05 16:25:23;;;;;;;14.20;4.25;;;13.00;99.90;;;;;;5038140;28;20068;-71
2022/12/05 16:28:32;;;;;;;10.20;2.55;;;13.00;99.90;;;;;;5020306;28;20041;-72
2022/12/05 16:31:38;;;;;;;12.05;4.60;;;12.90;99.90;;;;;;5036822;28;20048;-72
2022/12/05 16:34:42;;;;;;;10.93;3.15;;;12.90;99.90;;;;;;5034178;28;20052;-72
2022/12/05 16:37:46;;;;;;;13.30;2.40;;;12.90;99.90;;;;;;5043239;28;20380;-72
2022/12/05 16:40:57;;;;;;;7.63;2.28;;;12.90;99.90;;;;;;5036378;28;20036;-72
2022/12/05 16:44:03;;;;;;;8.32;2.33;;;12.90;99.90;;;;;;5034545;28;20045;-72
2022/12/05 16:47:21;;;;;;;11.23;2.65;;;12.90;99.90;;;;;;5040802;28;20052;-72
2022/12/05 16:50:33;;;;;;;10.05;3.22;;;12.90;99.90;;;;;;5030726;28;20043;-72
2022/12/05 16:53:39;;;;;;;10.32;3.00;;;12.90;99.90;;;;;;5042901;28;20044;-72
2022/12/05 16:56:44;;;;;;;8.50;3.13;;;12.80;99.90;;;;;;5030822;28;20052;-72
2022/12/05 16:59:48;;;;;;;7.80;2.80;;;12.70;99.90;;;;;;5033779;28;20040;-73
2022/12/05 17:02:53;;;;;;;9.80;2.55;;;12.50;99.90;;;;;;5029423;28;20578;-72
2022/12/05 17:05:59;;;;;;;8.32;2.50;;;12.40;99.90;;;;;;5039229;28;20624;-72
2022/12/05 17:09:03;;;;;;;10.38;2.65;;;12.30;99.90;;;;;;5052399;28;20048;-72